sensor_id;sensor_type;location;lat;lon;timestamp;P1;durP1;ratioP1;P2;durP2;ratioP2
908;SDS011;441;51.192;6.788;2022-08-25T00:01:29;3.47;;;3.17;;
908;SDS011;441;51.192;6.788;2022-08-25T00:03:58;2.43;;;2.33;;
908;SDS011;441;51.192;6.788;2022-08-25T00:06:26;3.57;;;3.27;;
908;SDS011;441;51.192;6.788;2022-08-25T00:08:52;3.10;;;3.00;;
908;SDS011;441;51.192;6.788;2022-08-25T00:11:23;2.80;;;2.70;;
908;SDS011;441;51.192;6.788;2022-08-25T00:13:52;2.60;;;2.50;;
908;SDS011;441;51.192;6.788;2022-08-25T00:16:23;3.23;;;3.03;;
908;SDS011;441;51.192;6.788;2022-08-25T00:18:51;3.07;;;2.97;;
908;SDS011;441;51.192;6.788;2022-08-25T00:21:22;3.00;;;2.80;;
908;SDS011;441;51.192;6.788;2022-08-25T00:23:50;3.30;;;3.10;;
908;SDS011;441;51.192;6.788;2022-08-25T00:26:17;3.40;;;3.07;;
908;SDS011;441;51.192;6.788;2022-08-25T00:28:44;2.80;;;2.70;;
908;SDS011;441;51.192;6.788;2022-08-25T00:31:12;2.90;;;2.80;;
908;SDS011;441;51.192;6.788;2022-08-25T00:33:42;3.40;;;3.30;;
908;SDS011;441;51.192;6.788;2022-08-25T00:36:10;3.00;;;2.80;;
908;SDS011;441;51.192;6.788;2022-08-25T00:38:37;3.13;;;3.03;;
908;SDS011;441;51.192;6.788;2022-08-25T00:41:04;2.93;;;2.70;;
908;SDS011;441;51.192;6.788;2022-08-25T00:43:42;2.57;;;2.37;;
908;SDS011;441;51.192;6.788;2022-08-25T00:46:11;2.97;;;2.77;;
908;SDS011;441;51.192;6.788;2022-08-25T00:48:39;3.17;;;2.97;;
908;SDS011;441;51.192;6.788;2022-08-25T00:51:10;2.93;;;2.83;;
908;SDS011;441;51.192;6.788;2022-08-25T00:53:39;2.47;;;2.37;;
908;SDS011;441;51.192;6.788;2022-08-25T00:56:07;3.07;;;2.87;;
908;SDS011;441;51.192;6.788;2022-08-25T00:58:34;2.80;;;2.60;;
908;SDS011;441;51.192;6.788;2022-08-25T01:01:02;2.90;;;2.70;;
908;SDS011;441;51.192;6.788;2022-08-25T01:03:29;2.60;;;2.50;;
908;SDS011;441;51.192;6.788;2022-08-25T01:05:59;2.70;;;2.60;;
908;SDS011;441;51.192;6.788;2022-08-25T01:08:28;2.97;;;2.77;;
908;SDS011;441;51.192;6.788;2022-08-25T01:10:57;3.20;;;2.90;;
908;SDS011;441;51.192;6.788;2022-08-25T01:13:28;3.70;;;2.60;;
908;SDS011;441;51.192;6.788;2022-08-25T01:15:58;3.40;;;2.73;;
908;SDS011;441;51.192;6.788;2022-08-25T01:18:26;3.03;;;2.83;;
908;SDS011;441;51.192;6.788;2022-08-25T01:20:55;2.90;;;2.70;;
908;SDS011;441;51.192;6.788;2022-08-25T01:23:23;4.70;;;3.60;;
908;SDS011;441;51.192;6.788;2022-08-25T01:25:52;2.93;;;2.83;;
908;SDS011;441;51.192;6.788;2022-08-25T01:28:26;3.20;;;3.00;;
908;SDS011;441;51.192;6.788;2022-08-25T01:30:53;2.30;;;2.20;;
908;SDS011;441;51.192;6.788;2022-08-25T01:33:20;2.50;;;2.40;;
908;SDS011;441;51.192;6.788;2022-08-25T01:35:47;3.17;;;2.97;;
908;SDS011;441;51.192;6.788;2022-08-25T01:38:16;2.70;;;2.60;;
908;SDS011;441;51.192;6.788;2022-08-25T01:40:45;3.03;;;2.83;;
908;SDS011;441;51.192;6.788;2022-08-25T01:43:15;2.70;;;2.50;;
908;SDS011;441;51.192;6.788;2022-08-25T01:45:55;2.47;;;2.33;;
908;SDS011;441;51.192;6.788;2022-08-25T01:48:23;3.13;;;2.93;;
908;SDS011;441;51.192;6.788;2022-08-25T01:50:50;2.97;;;2.77;;
908;SDS011;441;51.192;6.788;2022-08-25T01:53:21;3.57;;;3.37;;
908;SDS011;441;51.192;6.788;2022-08-25T01:55:52;3.00;;;2.77;;
908;SDS011;441;51.192;6.788;2022-08-25T01:58:26;3.17;;;2.97;;
908;SDS011;441;51.192;6.788;2022-08-25T02:00:55;2.80;;;2.60;;
908;SDS011;441;51.192;6.788;2022-08-25T02:03:23;2.77;;;2.57;;
908;SDS011;441;51.192;6.788;2022-08-25T02:05:51;3.10;;;3.00;;
908;SDS011;441;51.192;6.788;2022-08-25T02:08:21;3.23;;;3.03;;
908;SDS011;441;51.192;6.788;2022-08-25T02:10:49;3.80;;;2.97;;
908;SDS011;441;51.192;6.788;2022-08-25T02:13:16;3.47;;;2.73;;
908;SDS011;441;51.192;6.788;2022-08-25T02:15:45;2.67;;;2.50;;
908;SDS011;441;51.192;6.788;2022-08-25T02:18:14;3.10;;;2.97;;
908;SDS011;441;51.192;6.788;2022-08-25T02:20:41;4.23;;;3.40;;
908;SDS011;441;51.192;6.788;2022-08-25T02:23:08;2.77;;;2.67;;
908;SDS011;441;51.192;6.788;2022-08-25T02:25:37;3.57;;;3.37;;
908;SDS011;441;51.192;6.788;2022-08-25T02:28:05;3.70;;;3.50;;
908;SDS011;441;51.192;6.788;2022-08-25T02:30:33;2.90;;;2.60;;
908;SDS011;441;51.192;6.788;2022-08-25T02:33:00;2.63;;;2.53;;
908;SDS011;441;51.192;6.788;2022-08-25T02:35:27;3.00;;;2.80;;
908;SDS011;441;51.192;6.788;2022-08-25T02:37:55;2.50;;;2.40;;
908;SDS011;441;51.192;6.788;2022-08-25T02:40:22;2.53;;;2.40;;
908;SDS011;441;51.192;6.788;2022-08-25T02:42:50;2.80;;;2.70;;
908;SDS011;441;51.192;6.788;2022-08-25T02:45:17;3.40;;;3.10;;
908;SDS011;441;51.192;6.788;2022-08-25T02:47:44;2.80;;;2.60;;
908;SDS011;441;51.192;6.788;2022-08-25T02:50:11;2.93;;;2.73;;
908;SDS011;441;51.192;6.788;2022-08-25T02:52:38;3.30;;;3.20;;
908;SDS011;441;51.192;6.788;2022-08-25T02:55:07;3.73;;;3.10;;
908;SDS011;441;51.192;6.788;2022-08-25T02:57:38;3.40;;;3.30;;
908;SDS011;441;51.192;6.788;2022-08-25T03:00:08;3.13;;;3.00;;
908;SDS011;441;51.192;6.788;2022-08-25T03:02:38;2.70;;;2.50;;
908;SDS011;441;51.192;6.788;2022-08-25T03:05:06;3.00;;;2.83;;
908;SDS011;441;51.192;6.788;2022-08-25T03:07:34;3.20;;;3.00;;
908;SDS011;441;51.192;6.788;2022-08-25T03:10:03;2.50;;;2.40;;
908;SDS011;441;51.192;6.788;2022-08-25T03:12:31;2.30;;;2.20;;
908;SDS011;441;51.192;6.788;2022-08-25T03:14:58;2.70;;;2.60;;
908;SDS011;441;51.192;6.788;2022-08-25T03:17:26;3.20;;;3.00;;
908;SDS011;441;51.192;6.788;2022-08-25T03:19:54;3.53;;;3.33;;
908;SDS011;441;51.192;6.788;2022-08-25T03:22:21;2.97;;;2.77;;
908;SDS011;441;51.192;6.788;2022-08-25T03:24:47;2.53;;;2.43;;
908;SDS011;441;51.192;6.788;2022-08-25T03:27:14;3.03;;;2.87;;
908;SDS011;441;51.192;6.788;2022-08-25T03:29:40;2.87;;;2.70;;
908;SDS011;441;51.192;6.788;2022-08-25T03:32:07;3.40;;;3.20;;
908;SDS011;441;51.192;6.788;2022-08-25T03:34:36;2.97;;;2.77;;
908;SDS011;441;51.192;6.788;2022-08-25T03:37:03;4.13;;;3.93;;
908;SDS011;441;51.192;6.788;2022-08-25T03:39:32;3.43;;;3.23;;
908;SDS011;441;51.192;6.788;2022-08-25T03:42:01;4.53;;;3.10;;
908;SDS011;441;51.192;6.788;2022-08-25T03:44:28;2.87;;;2.77;;
908;SDS011;441;51.192;6.788;2022-08-25T03:46:55;3.33;;;3.13;;
908;SDS011;441;51.192;6.788;2022-08-25T03:49:22;2.87;;;2.77;;
908;SDS011;441;51.192;6.788;2022-08-25T03:51:52;3.17;;;2.97;;
908;SDS011;441;51.192;6.788;2022-08-25T03:54:21;2.80;;;2.70;;
908;SDS011;441;51.192;6.788;2022-08-25T03:56:49;2.70;;;2.33;;
908;SDS011;441;51.192;6.788;2022-08-25T03:59:16;4.67;;;3.47;;
908;SDS011;441;51.192;6.788;2022-08-25T04:01:43;2.90;;;2.80;;
908;SDS011;441;51.192;6.788;2022-08-25T04:04:12;3.37;;;3.17;;
908;SDS011;441;51.192;6.788;2022-08-25T04:06:40;3.10;;;3.00;;
908;SDS011;441;51.192;6.788;2022-08-25T04:09:09;3.37;;;3.10;;
908;SDS011;441;51.192;6.788;2022-08-25T04:11:37;2.97;;;2.87;;
908;SDS011;441;51.192;6.788;2022-08-25T04:14:04;4.17;;;3.87;;
908;SDS011;441;51.192;6.788;2022-08-25T04:16:32;3.43;;;3.20;;
908;SDS011;441;51.192;6.788;2022-08-25T04:19:02;3.20;;;3.00;;
908;SDS011;441;51.192;6.788;2022-08-25T04:21:31;2.97;;;2.87;;
908;SDS011;441;51.192;6.788;2022-08-25T04:23:58;3.43;;;3.23;;
908;SDS011;441;51.192;6.788;2022-08-25T04:26:28;3.70;;;3.40;;
908;SDS011;441;51.192;6.788;2022-08-25T04:28:57;4.27;;;3.97;;
908;SDS011;441;51.192;6.788;2022-08-25T04:31:25;3.70;;;3.50;;
908;SDS011;441;51.192;6.788;2022-08-25T04:33:53;2.90;;;2.80;;
908;SDS011;441;51.192;6.788;2022-08-25T04:36:21;3.20;;;3.00;;
908;SDS011;441;51.192;6.788;2022-08-25T04:38:48;2.80;;;2.70;;
908;SDS011;441;51.192;6.788;2022-08-25T04:41:16;3.70;;;3.50;;
908;SDS011;441;51.192;6.788;2022-08-25T04:43:46;3.23;;;2.93;;
908;SDS011;441;51.192;6.788;2022-08-25T04:46:14;3.40;;;3.10;;
908;SDS011;441;51.192;6.788;2022-08-25T04:48:42;3.80;;;2.90;;
908;SDS011;441;51.192;6.788;2022-08-25T04:51:11;4.67;;;3.07;;
908;SDS011;441;51.192;6.788;2022-08-25T04:53:39;3.73;;;3.43;;
908;SDS011;441;51.192;6.788;2022-08-25T04:56:07;3.13;;;2.93;;
908;SDS011;441;51.192;6.788;2022-08-25T04:58:36;3.33;;;3.13;;
908;SDS011;441;51.192;6.788;2022-08-25T05:01:05;3.17;;;2.93;;
908;SDS011;441;51.192;6.788;2022-08-25T05:03:34;3.10;;;2.90;;
908;SDS011;441;51.192;6.788;2022-08-25T05:06:02;2.90;;;2.70;;
908;SDS011;441;51.192;6.788;2022-08-25T05:08:30;2.90;;;2.80;;
908;SDS011;441;51.192;6.788;2022-08-25T05:10:57;3.23;;;3.03;;
908;SDS011;441;51.192;6.788;2022-08-25T05:13:24;3.17;;;2.90;;
908;SDS011;441;51.192;6.788;2022-08-25T05:15:52;4.20;;;3.90;;
908;SDS011;441;51.192;6.788;2022-08-25T05:18:21;3.90;;;3.60;;
908;SDS011;441;51.192;6.788;2022-08-25T05:20:50;6.30;;;3.87;;
908;SDS011;441;51.192;6.788;2022-08-25T05:23:19;4.10;;;3.80;;
908;SDS011;441;51.192;6.788;2022-08-25T05:25:47;3.63;;;3.43;;
908;SDS011;441;51.192;6.788;2022-08-25T05:28:15;3.23;;;3.03;;
908;SDS011;441;51.192;6.788;2022-08-25T05:30:42;5.33;;;3.50;;
908;SDS011;441;51.192;6.788;2022-08-25T05:33:10;4.40;;;4.00;;
908;SDS011;441;51.192;6.788;2022-08-25T05:35:39;3.80;;;3.60;;
908;SDS011;441;51.192;6.788;2022-08-25T05:38:06;4.07;;;3.70;;
908;SDS011;441;51.192;6.788;2022-08-25T05:40:36;6.40;;;5.90;;
908;SDS011;441;51.192;6.788;2022-08-25T05:43:03;4.40;;;4.00;;
908;SDS011;441;51.192;6.788;2022-08-25T05:45:32;5.03;;;4.33;;
908;SDS011;441;51.192;6.788;2022-08-25T05:48:03;9.20;;;4.47;;
908;SDS011;441;51.192;6.788;2022-08-25T05:50:30;10.37;;;4.47;;
908;SDS011;441;51.192;6.788;2022-08-25T05:52:58;7.43;;;4.43;;
908;SDS011;441;51.192;6.788;2022-08-25T05:55:25;7.20;;;5.27;;
908;SDS011;441;51.192;6.788;2022-08-25T05:57:52;13.50;;;4.63;;
908;SDS011;441;51.192;6.788;2022-08-25T06:00:20;5.50;;;4.70;;
908;SDS011;441;51.192;6.788;2022-08-25T06:02:47;4.53;;;4.20;;
908;SDS011;441;51.192;6.788;2022-08-25T06:05:14;5.80;;;4.50;;
908;SDS011;441;51.192;6.788;2022-08-25T06:07:42;4.17;;;3.80;;
908;SDS011;441;51.192;6.788;2022-08-25T06:10:11;3.80;;;3.60;;
908;SDS011;441;51.192;6.788;2022-08-25T06:12:39;4.07;;;3.67;;
908;SDS011;441;51.192;6.788;2022-08-25T06:15:09;4.80;;;4.50;;
908;SDS011;441;51.192;6.788;2022-08-25T06:17:37;4.07;;;3.77;;
908;SDS011;441;51.192;6.788;2022-08-25T06:20:06;3.77;;;3.50;;
908;SDS011;441;51.192;6.788;2022-08-25T06:22:35;3.97;;;3.63;;
908;SDS011;441;51.192;6.788;2022-08-25T06:25:05;4.67;;;4.17;;
908;SDS011;441;51.192;6.788;2022-08-25T06:27:35;4.00;;;3.60;;
908;SDS011;441;51.192;6.788;2022-08-25T06:30:02;5.07;;;4.67;;
908;SDS011;441;51.192;6.788;2022-08-25T06:32:30;4.40;;;4.10;;
908;SDS011;441;51.192;6.788;2022-08-25T06:34:57;3.93;;;3.60;;
908;SDS011;441;51.192;6.788;2022-08-25T06:37:24;4.07;;;3.77;;
908;SDS011;441;51.192;6.788;2022-08-25T06:39:51;4.80;;;4.50;;
908;SDS011;441;51.192;6.788;2022-08-25T06:42:18;4.43;;;4.13;;
908;SDS011;441;51.192;6.788;2022-08-25T06:44:46;6.10;;;3.63;;
908;SDS011;441;51.192;6.788;2022-08-25T06:47:13;3.90;;;3.60;;
908;SDS011;441;51.192;6.788;2022-08-25T06:49:40;4.00;;;3.80;;
908;SDS011;441;51.192;6.788;2022-08-25T06:52:08;4.80;;;4.10;;
908;SDS011;441;51.192;6.788;2022-08-25T06:54:35;3.87;;;3.67;;
908;SDS011;441;51.192;6.788;2022-08-25T06:57:02;4.73;;;4.43;;
908;SDS011;441;51.192;6.788;2022-08-25T06:59:30;4.20;;;3.90;;
908;SDS011;441;51.192;6.788;2022-08-25T07:01:59;4.90;;;4.50;;
908;SDS011;441;51.192;6.788;2022-08-25T07:04:26;4.20;;;3.80;;
908;SDS011;441;51.192;6.788;2022-08-25T07:06:53;3.77;;;3.57;;
908;SDS011;441;51.192;6.788;2022-08-25T07:09:20;3.70;;;3.50;;
908;SDS011;441;51.192;6.788;2022-08-25T07:11:47;3.93;;;3.63;;
908;SDS011;441;51.192;6.788;2022-08-25T07:14:14;4.23;;;3.93;;
908;SDS011;441;51.192;6.788;2022-08-25T07:16:43;4.77;;;4.30;;
908;SDS011;441;51.192;6.788;2022-08-25T07:19:12;4.10;;;3.87;;
908;SDS011;441;51.192;6.788;2022-08-25T07:21:39;4.80;;;4.30;;
908;SDS011;441;51.192;6.788;2022-08-25T07:24:10;4.87;;;4.47;;
908;SDS011;441;51.192;6.788;2022-08-25T07:26:39;5.33;;;3.97;;
908;SDS011;441;51.192;6.788;2022-08-25T07:29:08;4.40;;;4.10;;
908;SDS011;441;51.192;6.788;2022-08-25T07:31:37;4.17;;;3.40;;
908;SDS011;441;51.192;6.788;2022-08-25T07:34:04;7.27;;;4.10;;
908;SDS011;441;51.192;6.788;2022-08-25T07:36:50;3.70;;;3.50;;
908;SDS011;441;51.192;6.788;2022-08-25T07:39:18;3.97;;;3.77;;
908;SDS011;441;51.192;6.788;2022-08-25T07:41:45;3.73;;;3.50;;
908;SDS011;441;51.192;6.788;2022-08-25T07:44:12;5.63;;;4.30;;
908;SDS011;441;51.192;6.788;2022-08-25T07:46:39;4.10;;;3.80;;
908;SDS011;441;51.192;6.788;2022-08-25T07:49:06;3.20;;;3.00;;
908;SDS011;441;51.192;6.788;2022-08-25T07:51:34;3.50;;;3.30;;
908;SDS011;441;51.192;6.788;2022-08-25T07:54:03;3.40;;;3.20;;
908;SDS011;441;51.192;6.788;2022-08-25T07:56:30;4.37;;;3.97;;
908;SDS011;441;51.192;6.788;2022-08-25T07:58:57;3.50;;;3.30;;
908;SDS011;441;51.192;6.788;2022-08-25T08:01:24;3.37;;;3.07;;
908;SDS011;441;51.192;6.788;2022-08-25T08:03:51;3.40;;;3.20;;
908;SDS011;441;51.192;6.788;2022-08-25T08:06:19;4.00;;;3.03;;
908;SDS011;441;51.192;6.788;2022-08-25T08:08:48;3.37;;;3.17;;
908;SDS011;441;51.192;6.788;2022-08-25T08:11:19;3.20;;;3.00;;
908;SDS011;441;51.192;6.788;2022-08-25T08:13:48;5.27;;;3.60;;
908;SDS011;441;51.192;6.788;2022-08-25T08:16:16;3.80;;;3.57;;
908;SDS011;441;51.192;6.788;2022-08-25T08:18:44;4.57;;;4.23;;
908;SDS011;441;51.192;6.788;2022-08-25T08:21:12;3.80;;;3.60;;
908;SDS011;441;51.192;6.788;2022-08-25T08:23:39;3.43;;;3.23;;
908;SDS011;441;51.192;6.788;2022-08-25T08:26:06;4.40;;;4.00;;
908;SDS011;441;51.192;6.788;2022-08-25T08:28:35;3.40;;;3.20;;
908;SDS011;441;51.192;6.788;2022-08-25T08:31:02;3.83;;;3.40;;
908;SDS011;441;51.192;6.788;2022-08-25T08:33:29;3.37;;;3.17;;
908;SDS011;441;51.192;6.788;2022-08-25T08:35:57;3.23;;;3.03;;
908;SDS011;441;51.192;6.788;2022-08-25T08:38:25;4.67;;;4.27;;
908;SDS011;441;51.192;6.788;2022-08-25T08:40:57;5.43;;;3.80;;
908;SDS011;441;51.192;6.788;2022-08-25T08:43:52;4.13;;;3.83;;
908;SDS011;441;51.192;6.788;2022-08-25T08:46:26;3.43;;;3.17;;
908;SDS011;441;51.192;6.788;2022-08-25T08:49:03;5.13;;;4.43;;
908;SDS011;441;51.192;6.788;2022-08-25T08:51:37;4.40;;;4.00;;
908;SDS011;441;51.192;6.788;2022-08-25T08:54:13;4.27;;;3.93;;
908;SDS011;441;51.192;6.788;2022-08-25T08:56:46;3.67;;;3.43;;
908;SDS011;441;51.192;6.788;2022-08-25T08:59:18;6.13;;;3.83;;
908;SDS011;441;51.192;6.788;2022-08-25T09:01:51;3.70;;;3.50;;
908;SDS011;441;51.192;6.788;2022-08-25T09:04:25;6.13;;;5.10;;
908;SDS011;441;51.192;6.788;2022-08-25T09:06:57;4.63;;;4.27;;
908;SDS011;441;51.192;6.788;2022-08-25T09:09:27;4.13;;;3.50;;
908;SDS011;441;51.192;6.788;2022-08-25T09:11:57;5.73;;;3.80;;
908;SDS011;441;51.192;6.788;2022-08-25T09:14:38;4.20;;;3.70;;
908;SDS011;441;51.192;6.788;2022-08-25T09:17:17;4.53;;;4.20;;
908;SDS011;441;51.192;6.788;2022-08-25T09:20:05;5.30;;;4.30;;
908;SDS011;441;51.192;6.788;2022-08-25T09:22:45;4.23;;;3.93;;
908;SDS011;441;51.192;6.788;2022-08-25T09:25:21;3.70;;;3.43;;
908;SDS011;441;51.192;6.788;2022-08-25T09:27:54;4.10;;;3.80;;
908;SDS011;441;51.192;6.788;2022-08-25T09:30:36;3.67;;;3.47;;
908;SDS011;441;51.192;6.788;2022-08-25T09:33:09;3.50;;;3.30;;
908;SDS011;441;51.192;6.788;2022-08-25T09:35:40;3.80;;;3.50;;
908;SDS011;441;51.192;6.788;2022-08-25T09:38:09;3.80;;;3.50;;
908;SDS011;441;51.192;6.788;2022-08-25T09:40:38;4.30;;;4.00;;
908;SDS011;441;51.192;6.788;2022-08-25T09:43:16;4.40;;;4.10;;
908;SDS011;441;51.192;6.788;2022-08-25T09:45:48;4.07;;;3.73;;
908;SDS011;441;51.192;6.788;2022-08-25T09:48:23;5.90;;;3.47;;
908;SDS011;441;51.192;6.788;2022-08-25T09:51:01;3.10;;;2.90;;
908;SDS011;441;51.192;6.788;2022-08-25T09:53:42;3.80;;;3.50;;
908;SDS011;441;51.192;6.788;2022-08-25T09:56:15;3.93;;;3.63;;
908;SDS011;441;51.192;6.788;2022-08-25T09:58:45;4.73;;;3.47;;
908;SDS011;441;51.192;6.788;2022-08-25T10:01:14;4.13;;;3.70;;
908;SDS011;441;51.192;6.788;2022-08-25T10:03:53;5.00;;;3.47;;
908;SDS011;441;51.192;6.788;2022-08-25T10:06:26;4.10;;;3.80;;
908;SDS011;441;51.192;6.788;2022-08-25T10:09:00;3.60;;;3.40;;
908;SDS011;441;51.192;6.788;2022-08-25T10:11:35;4.70;;;4.17;;
908;SDS011;441;51.192;6.788;2022-08-25T10:14:16;3.47;;;3.17;;
908;SDS011;441;51.192;6.788;2022-08-25T10:16:46;3.53;;;3.33;;
908;SDS011;441;51.192;6.788;2022-08-25T10:19:21;3.70;;;3.50;;
908;SDS011;441;51.192;6.788;2022-08-25T10:22:04;3.87;;;3.47;;
908;SDS011;441;51.192;6.788;2022-08-25T10:24:34;3.93;;;3.63;;
908;SDS011;441;51.192;6.788;2022-08-25T10:27:04;3.70;;;3.40;;
908;SDS011;441;51.192;6.788;2022-08-25T10:29:56;5.00;;;4.40;;
908;SDS011;441;51.192;6.788;2022-08-25T10:32:35;4.03;;;3.77;;
908;SDS011;441;51.192;6.788;2022-08-25T10:35:23;5.10;;;4.70;;
908;SDS011;441;51.192;6.788;2022-08-25T10:38:00;5.83;;;4.40;;
908;SDS011;441;51.192;6.788;2022-08-25T10:40:34;17.43;;;7.43;;
908;SDS011;441;51.192;6.788;2022-08-25T10:43:10;14.00;;;6.20;;
908;SDS011;441;51.192;6.788;2022-08-25T10:45:46;15.83;;;8.33;;
908;SDS011;441;51.192;6.788;2022-08-25T10:48:23;11.03;;;7.30;;
908;SDS011;441;51.192;6.788;2022-08-25T10:54:16;10.57;;;6.60;;
908;SDS011;441;51.192;6.788;2022-08-25T10:56:54;11.03;;;6.90;;
908;SDS011;441;51.192;6.788;2022-08-25T10:59:34;8.57;;;5.20;;
908;SDS011;441;51.192;6.788;2022-08-25T11:02:32;8.83;;;6.40;;
908;SDS011;441;51.192;6.788;2022-08-25T11:05:15;14.00;;;5.90;;
908;SDS011;441;51.192;6.788;2022-08-25T11:07:47;11.03;;;6.00;;
908;SDS011;441;51.192;6.788;2022-08-25T11:10:18;8.50;;;6.40;;
908;SDS011;441;51.192;6.788;2022-08-25T11:12:50;8.13;;;5.97;;
908;SDS011;441;51.192;6.788;2022-08-25T11:15:22;9.70;;;6.30;;
908;SDS011;441;51.192;6.788;2022-08-25T11:17:54;9.23;;;5.37;;
908;SDS011;441;51.192;6.788;2022-08-25T11:20:27;7.07;;;5.30;;
908;SDS011;441;51.192;6.788;2022-08-25T11:23:02;7.00;;;5.43;;
908;SDS011;441;51.192;6.788;2022-08-25T11:25:36;7.73;;;5.13;;
908;SDS011;441;51.192;6.788;2022-08-25T11:28:08;7.70;;;5.63;;
908;SDS011;441;51.192;6.788;2022-08-25T11:30:38;7.70;;;5.50;;
908;SDS011;441;51.192;6.788;2022-08-25T11:33:06;7.03;;;5.10;;
908;SDS011;441;51.192;6.788;2022-08-25T11:35:38;7.73;;;4.30;;
908;SDS011;441;51.192;6.788;2022-08-25T11:38:12;6.97;;;4.50;;
908;SDS011;441;51.192;6.788;2022-08-25T11:40:59;8.80;;;5.90;;
908;SDS011;441;51.192;6.788;2022-08-25T11:43:41;7.23;;;4.90;;
908;SDS011;441;51.192;6.788;2022-08-25T11:46:30;5.67;;;5.10;;
908;SDS011;441;51.192;6.788;2022-08-25T11:49:12;8.00;;;5.87;;
908;SDS011;441;51.192;6.788;2022-08-25T11:52:02;6.87;;;4.60;;
908;SDS011;441;51.192;6.788;2022-08-25T11:54:33;7.70;;;4.80;;
908;SDS011;441;51.192;6.788;2022-08-25T11:57:03;4.83;;;4.33;;
908;SDS011;441;51.192;6.788;2022-08-25T12:02:31;6.17;;;4.50;;
908;SDS011;441;51.192;6.788;2022-08-25T12:05:04;4.40;;;3.70;;
908;SDS011;441;51.192;6.788;2022-08-25T12:10:52;6.00;;;4.50;;
908;SDS011;441;51.192;6.788;2022-08-25T12:21:51;3.83;;;3.43;;
908;SDS011;441;51.192;6.788;2022-08-25T12:24:21;4.57;;;3.80;;
908;SDS011;441;51.192;6.788;2022-08-25T12:27:09;4.43;;;4.03;;
908;SDS011;441;51.192;6.788;2022-08-25T12:29:46;5.33;;;3.30;;
908;SDS011;441;51.192;6.788;2022-08-25T12:32:21;4.87;;;4.57;;
908;SDS011;441;51.192;6.788;2022-08-25T12:35:10;3.23;;;3.03;;
908;SDS011;441;51.192;6.788;2022-08-25T12:37:53;4.17;;;3.80;;
908;SDS011;441;51.192;6.788;2022-08-25T12:40:25;3.87;;;3.57;;
908;SDS011;441;51.192;6.788;2022-08-25T12:43:01;4.30;;;4.00;;
908;SDS011;441;51.192;6.788;2022-08-25T12:45:32;6.10;;;3.37;;
908;SDS011;441;51.192;6.788;2022-08-25T12:51:23;3.60;;;3.30;;
908;SDS011;441;51.192;6.788;2022-08-25T12:53:52;4.70;;;3.63;;
908;SDS011;441;51.192;6.788;2022-08-25T12:56:27;5.30;;;3.50;;
908;SDS011;441;51.192;6.788;2022-08-25T12:59:04;4.50;;;4.10;;
908;SDS011;441;51.192;6.788;2022-08-25T13:01:42;3.60;;;3.40;;
908;SDS011;441;51.192;6.788;2022-08-25T13:07:55;4.40;;;4.00;;
908;SDS011;441;51.192;6.788;2022-08-25T13:10:39;3.83;;;3.63;;
908;SDS011;441;51.192;6.788;2022-08-25T13:13:14;3.23;;;3.03;;
908;SDS011;441;51.192;6.788;2022-08-25T13:15:56;3.43;;;3.23;;
908;SDS011;441;51.192;6.788;2022-08-25T13:18:26;3.43;;;3.20;;
908;SDS011;441;51.192;6.788;2022-08-25T13:21:02;3.87;;;3.43;;
908;SDS011;441;51.192;6.788;2022-08-25T13:23:33;3.67;;;3.40;;
908;SDS011;441;51.192;6.788;2022-08-25T13:26:02;3.87;;;3.67;;
908;SDS011;441;51.192;6.788;2022-08-25T13:28:32;3.43;;;3.23;;
908;SDS011;441;51.192;6.788;2022-08-25T13:31:03;3.70;;;3.50;;
908;SDS011;441;51.192;6.788;2022-08-25T13:33:32;4.00;;;3.70;;
908;SDS011;441;51.192;6.788;2022-08-25T13:36:00;3.20;;;3.00;;
908;SDS011;441;51.192;6.788;2022-08-25T13:38:45;3.73;;;3.50;;
908;SDS011;441;51.192;6.788;2022-08-25T13:41:17;3.97;;;3.63;;
908;SDS011;441;51.192;6.788;2022-08-25T13:43:47;3.17;;;2.97;;
908;SDS011;441;51.192;6.788;2022-08-25T13:46:17;3.53;;;3.33;;
908;SDS011;441;51.192;6.788;2022-08-25T13:48:45;3.47;;;3.17;;
908;SDS011;441;51.192;6.788;2022-08-25T13:51:17;3.57;;;3.30;;
908;SDS011;441;51.192;6.788;2022-08-25T13:53:49;3.40;;;3.20;;
908;SDS011;441;51.192;6.788;2022-08-25T13:56:21;3.30;;;3.10;;
908;SDS011;441;51.192;6.788;2022-08-25T13:58:53;3.47;;;3.23;;
908;SDS011;441;51.192;6.788;2022-08-25T14:01:22;2.73;;;2.53;;
908;SDS011;441;51.192;6.788;2022-08-25T14:03:52;4.00;;;3.70;;
908;SDS011;441;51.192;6.788;2022-08-25T14:06:22;3.23;;;3.03;;
908;SDS011;441;51.192;6.788;2022-08-25T14:09:03;3.40;;;3.20;;
908;SDS011;441;51.192;6.788;2022-08-25T14:11:32;3.60;;;3.40;;
908;SDS011;441;51.192;6.788;2022-08-25T14:14:09;3.33;;;3.13;;
908;SDS011;441;51.192;6.788;2022-08-25T14:16:39;3.50;;;3.20;;
908;SDS011;441;51.192;6.788;2022-08-25T14:19:13;3.20;;;3.10;;
908;SDS011;441;51.192;6.788;2022-08-25T14:21:43;3.20;;;3.00;;
908;SDS011;441;51.192;6.788;2022-08-25T14:24:12;4.10;;;3.80;;
908;SDS011;441;51.192;6.788;2022-08-25T14:26:41;2.97;;;2.83;;
908;SDS011;441;51.192;6.788;2022-08-25T14:29:10;4.10;;;3.80;;
908;SDS011;441;51.192;6.788;2022-08-25T14:31:39;3.00;;;2.90;;
908;SDS011;441;51.192;6.788;2022-08-25T14:34:09;3.20;;;3.00;;
908;SDS011;441;51.192;6.788;2022-08-25T14:36:40;4.00;;;3.60;;
908;SDS011;441;51.192;6.788;2022-08-25T14:39:07;5.03;;;3.60;;
908;SDS011;441;51.192;6.788;2022-08-25T14:41:35;3.50;;;3.30;;
908;SDS011;441;51.192;6.788;2022-08-25T14:44:04;3.50;;;3.30;;
908;SDS011;441;51.192;6.788;2022-08-25T14:46:33;3.63;;;3.43;;
908;SDS011;441;51.192;6.788;2022-08-25T14:49:04;3.93;;;3.67;;
908;SDS011;441;51.192;6.788;2022-08-25T14:51:32;3.63;;;3.43;;
908;SDS011;441;51.192;6.788;2022-08-25T14:54:01;4.30;;;3.90;;
908;SDS011;441;51.192;6.788;2022-08-25T14:56:31;3.00;;;2.90;;
908;SDS011;441;51.192;6.788;2022-08-25T14:58:59;4.00;;;3.40;;
908;SDS011;441;51.192;6.788;2022-08-25T15:01:26;3.47;;;3.27;;
908;SDS011;441;51.192;6.788;2022-08-25T15:03:56;3.63;;;3.33;;
908;SDS011;441;51.192;6.788;2022-08-25T15:06:27;3.90;;;3.70;;
908;SDS011;441;51.192;6.788;2022-08-25T15:08:54;3.70;;;3.40;;
908;SDS011;441;51.192;6.788;2022-08-25T15:11:33;3.27;;;2.97;;
908;SDS011;441;51.192;6.788;2022-08-25T15:14:00;3.50;;;3.20;;
908;SDS011;441;51.192;6.788;2022-08-25T15:16:28;3.47;;;3.27;;
908;SDS011;441;51.192;6.788;2022-08-25T15:18:58;3.47;;;3.27;;
908;SDS011;441;51.192;6.788;2022-08-25T15:21:26;3.70;;;3.50;;
908;SDS011;441;51.192;6.788;2022-08-25T15:23:53;3.60;;;3.40;;
908;SDS011;441;51.192;6.788;2022-08-25T15:26:20;3.50;;;3.40;;
908;SDS011;441;51.192;6.788;2022-08-25T15:28:49;3.57;;;3.37;;
908;SDS011;441;51.192;6.788;2022-08-25T15:31:16;4.00;;;3.70;;
908;SDS011;441;51.192;6.788;2022-08-25T15:33:45;3.13;;;2.83;;
908;SDS011;441;51.192;6.788;2022-08-25T15:36:14;2.83;;;2.73;;
908;SDS011;441;51.192;6.788;2022-08-25T15:38:44;3.27;;;3.13;;
908;SDS011;441;51.192;6.788;2022-08-25T15:41:11;3.10;;;3.00;;
908;SDS011;441;51.192;6.788;2022-08-25T15:43:38;3.63;;;3.40;;
908;SDS011;441;51.192;6.788;2022-08-25T15:46:07;4.13;;;3.90;;
908;SDS011;441;51.192;6.788;2022-08-25T15:48:38;4.03;;;3.73;;
908;SDS011;441;51.192;6.788;2022-08-25T15:51:05;3.93;;;3.63;;
908;SDS011;441;51.192;6.788;2022-08-25T15:53:34;3.73;;;3.53;;
908;SDS011;441;51.192;6.788;2022-08-25T15:56:02;4.03;;;3.80;;
908;SDS011;441;51.192;6.788;2022-08-25T15:58:30;3.63;;;3.43;;
908;SDS011;441;51.192;6.788;2022-08-25T16:00:59;3.00;;;2.80;;
908;SDS011;441;51.192;6.788;2022-08-25T16:03:26;3.63;;;3.43;;
908;SDS011;441;51.192;6.788;2022-08-25T16:05:53;3.03;;;2.83;;
908;SDS011;441;51.192;6.788;2022-08-25T16:08:20;2.97;;;2.87;;
908;SDS011;441;51.192;6.788;2022-08-25T16:10:48;3.60;;;3.40;;
908;SDS011;441;51.192;6.788;2022-08-25T16:13:15;3.60;;;3.30;;
908;SDS011;441;51.192;6.788;2022-08-25T16:15:45;3.77;;;3.57;;
908;SDS011;441;51.192;6.788;2022-08-25T16:18:13;4.17;;;3.97;;
908;SDS011;441;51.192;6.788;2022-08-25T16:20:42;3.83;;;3.63;;
908;SDS011;441;51.192;6.788;2022-08-25T16:23:11;3.30;;;3.03;;
908;SDS011;441;51.192;6.788;2022-08-25T16:25:40;3.80;;;3.60;;
908;SDS011;441;51.192;6.788;2022-08-25T16:28:10;3.80;;;3.60;;
908;SDS011;441;51.192;6.788;2022-08-25T16:30:38;3.50;;;3.30;;